createdAt,value
2022-12-01T00:01:19.862Z,10.88
2022-12-01T00:03:47.758Z,11.77
2022-12-01T00:06:17.412Z,10.82
2022-12-01T00:09:06.440Z,9.85
2022-12-01T00:11:35.596Z,10.63
2022-12-01T00:14:03.756Z,11.90
2022-12-01T00:16:32.037Z,11.27
2022-12-01T00:18:59.844Z,10.48
2022-12-01T00:21:28.272Z,8.57
2022-12-01T00:23:57.831Z,9.63
2022-12-01T00:26:26.788Z,8.27
2022-12-01T00:28:57.442Z,8.52
2022-12-01T00:31:25.971Z,8.75
2022-12-01T00:33:56.527Z,7.55
2022-12-01T00:36:24.614Z,6.97
2022-12-01T00:38:53.658Z,6.32
2022-12-01T00:41:21.764Z,7.43
2022-12-01T00:43:51.018Z,6.90
2022-12-01T00:46:20.132Z,10.20
2022-12-01T00:48:47.930Z,11.65
2022-12-01T00:51:15.579Z,10.35
2022-12-01T00:53:43.355Z,11.35
2022-12-01T00:56:11.137Z,10.45
2022-12-01T00:58:38.857Z,10.20
2022-12-01T01:01:07.151Z,11.15
2022-12-01T01:03:36.264Z,11.90
2022-12-01T01:06:08.716Z,12.77
2022-12-01T01:08:36.833Z,12.57
2022-12-01T01:11:07.237Z,11.68
2022-12-01T01:13:34.925Z,10.73
2022-12-01T01:16:05.629Z,9.65
2022-12-01T01:18:33.595Z,12.38
2022-12-01T01:21:05.995Z,12.27
2022-12-01T01:23:36.038Z,10.65
2022-12-01T01:26:05.450Z,12.52
2022-12-01T01:28:33.859Z,10.93
2022-12-01T01:31:06.185Z,9.50
2022-12-01T01:33:33.845Z,14.63
2022-12-01T01:36:03.780Z,12.20
2022-12-01T01:38:32.092Z,12.40
2022-12-01T01:40:59.764Z,13.05
2022-12-01T01:43:45.036Z,12.35
2022-12-01T01:46:14.487Z,11.90
2022-12-01T01:48:44.329Z,13.48
2022-12-01T01:51:15.400Z,12.70
2022-12-01T01:53:46.287Z,11.15
2022-12-01T01:56:14.026Z,12.88
2022-12-01T01:58:42.379Z,14.55
2022-12-01T02:01:10.037Z,13.55
2022-12-01T02:03:40.672Z,12.25
2022-12-01T02:06:09.584Z,12.90
2022-12-01T02:08:38.877Z,12.68
2022-12-01T02:11:32.460Z,12.52
2022-12-01T02:14:08.526Z,15.68
2022-12-01T02:16:45.386Z,13.40
2022-12-01T02:19:34.462Z,15.60
2022-12-01T02:22:15.827Z,14.43
2022-12-01T02:25:01.045Z,13.60
2022-12-01T02:27:44.858Z,13.18
2022-12-01T02:30:15.948Z,15.60
2022-12-01T02:33:05.470Z,13.35
2022-12-01T02:35:37.085Z,13.20
2022-12-01T02:38:12.800Z,16.00
2022-12-01T02:40:45.124Z,13.43
2022-12-01T02:43:18.965Z,14.25
2022-12-01T02:45:51.296Z,13.55
2022-12-01T02:48:27.615Z,10.52
2022-12-01T02:50:58.723Z,14.93
2022-12-01T02:53:26.615Z,15.15
2022-12-01T02:55:56.362Z,15.88
2022-12-01T02:58:24.161Z,14.95
2022-12-01T03:01:04.640Z,14.40
2022-12-01T03:03:48.585Z,14.93
2022-12-01T03:06:24.174Z,13.90
2022-12-01T03:08:59.628Z,14.77
2022-12-01T03:11:36.794Z,15.30
2022-12-01T03:14:14.214Z,15.73
2022-12-01T03:16:50.724Z,15.32
2022-12-01T03:19:28.089Z,16.88
2022-12-01T03:22:02.409Z,16.58
2022-12-01T03:24:32.929Z,15.50
2022-12-01T03:27:02.307Z,14.07
2022-12-01T03:29:33.863Z,15.45
2022-12-01T03:32:07.226Z,16.85
2022-12-01T03:37:10.461Z,15.65
2022-12-01T03:39:40.752Z,18.45
2022-12-01T03:42:14.984Z,18.38
2022-12-01T03:44:47.603Z,15.80
2022-12-01T03:47:18.244Z,17.92
2022-12-01T03:49:49.381Z,19.10
2022-12-01T03:52:25.518Z,19.20
2022-12-01T03:55:01.135Z,20.05
2022-12-01T03:57:32.794Z,18.27
2022-12-01T04:00:00.826Z,15.82
2022-12-01T04:02:28.997Z,16.70
2022-12-01T04:04:58.078Z,17.13
2022-12-01T04:07:25.814Z,17.48
2022-12-01T04:09:53.479Z,17.90
2022-12-01T04:12:29.366Z,16.40
2022-12-01T04:14:57.916Z,19.65
2022-12-01T04:17:25.822Z,16.98
2022-12-01T04:19:53.457Z,18.55
2022-12-01T04:22:23.167Z,17.40
2022-12-01T04:24:50.742Z,19.08
2022-12-01T04:27:18.505Z,16.23
2022-12-01T04:29:46.280Z,18.42
2022-12-01T04:32:13.990Z,18.95
2022-12-01T04:34:41.672Z,20.73
2022-12-01T04:37:10.043Z,16.90
2022-12-01T04:39:39.044Z,20.40
2022-12-01T04:42:06.839Z,19.23
2022-12-01T04:44:35.182Z,18.00
2022-12-01T04:47:03.307Z,18.40
2022-12-01T04:49:31.351Z,19.52
2022-12-01T04:51:59.229Z,19.10
2022-12-01T04:54:27.012Z,18.70
2022-12-01T04:56:55.994Z,18.40
2022-12-01T04:59:23.694Z,20.60
2022-12-01T05:01:51.297Z,17.73
2022-12-01T05:04:19.014Z,16.55
2022-12-01T05:06:46.779Z,18.40
2022-12-01T05:09:17.796Z,19.15
2022-12-01T05:11:46.067Z,20.45
2022-12-01T05:14:15.221Z,17.73
2022-12-01T05:16:42.876Z,19.95
2022-12-01T05:19:27.508Z,20.90
2022-12-01T05:21:55.266Z,21.00
2022-12-01T05:24:23.196Z,20.60
2022-12-01T05:26:50.857Z,20.85
2022-12-01T05:29:20.002Z,19.40
2022-12-01T05:31:47.761Z,20.90
2022-12-01T05:34:15.582Z,20.48
2022-12-01T05:36:43.152Z,21.63
2022-12-01T05:39:10.793Z,20.02
2022-12-01T05:41:38.355Z,20.00
2022-12-01T05:44:06.232Z,21.50
2022-12-01T05:46:35.248Z,19.00
2022-12-01T05:49:02.852Z,20.30
2022-12-01T05:51:30.430Z,20.08
2022-12-01T05:54:00.128Z,21.40
2022-12-01T05:56:27.763Z,20.33
2022-12-01T05:58:55.368Z,19.65
2022-12-01T06:01:23.105Z,18.40
2022-12-01T06:03:53.536Z,21.00
2022-12-01T06:06:21.445Z,19.33
2022-12-01T06:08:49.058Z,22.70
2022-12-01T06:11:16.813Z,21.00
2022-12-01T06:13:44.492Z,18.17
2022-12-01T06:16:12.216Z,21.70
2022-12-01T06:18:40.474Z,21.23
2022-12-01T06:21:09.505Z,20.75
2022-12-01T06:23:37.264Z,21.13
2022-12-01T06:26:05.099Z,20.55
2022-12-01T06:28:32.698Z,19.90
2022-12-01T06:31:03.394Z,20.95
2022-12-01T06:33:32.374Z,19.30
2022-12-01T06:36:00.124Z,19.30
2022-12-01T06:38:32.168Z,19.80
2022-12-01T06:40:59.818Z,18.08
2022-12-01T06:43:27.654Z,20.33
2022-12-01T06:46:00.816Z,20.92
2022-12-01T06:48:29.507Z,18.42
2022-12-01T06:50:58.343Z,18.33
2022-12-01T06:53:27.216Z,18.77
2022-12-01T06:55:59.839Z,18.08
2022-12-01T06:58:27.518Z,15.85
2022-12-01T07:00:55.573Z,18.48
2022-12-01T07:03:23.260Z,17.52
2022-12-01T07:05:58.388Z,18.52
2022-12-01T07:08:26.071Z,20.85
2022-12-01T07:10:59.850Z,17.95
2022-12-01T07:13:32.828Z,17.45
2022-12-01T07:18:28.272Z,17.23
2022-12-01T07:20:59.875Z,17.08
2022-12-01T07:23:27.503Z,16.40
2022-12-01T07:26:00.988Z,14.85
2022-12-01T07:28:29.494Z,25.35
2022-12-01T07:31:02.940Z,20.00
2022-12-01T07:33:30.797Z,19.83
2022-12-01T07:35:58.522Z,18.67
2022-12-01T07:38:26.504Z,16.60
2022-12-01T07:40:54.100Z,15.50
2022-12-01T07:43:23.268Z,16.98
2022-12-01T07:45:50.954Z,20.08
2022-12-01T07:48:18.576Z,18.92
2022-12-01T07:50:46.178Z,19.40
2022-12-01T07:53:13.772Z,17.02
2022-12-01T07:55:48.370Z,16.52
2022-12-01T07:58:15.971Z,17.95
2022-12-01T08:00:44.989Z,18.48
2022-12-01T08:03:12.692Z,16.63
2022-12-01T08:05:40.333Z,18.73
2022-12-01T08:08:08.017Z,16.48
2022-12-01T08:10:36.153Z,14.80
2022-12-01T08:13:03.873Z,15.15
2022-12-01T08:15:31.497Z,15.48
2022-12-01T08:18:03.578Z,18.08
2022-12-01T08:20:31.380Z,15.68
2022-12-01T08:23:01.576Z,19.05
2022-12-01T08:25:29.655Z,19.15
2022-12-01T08:27:57.815Z,20.00
2022-12-01T08:30:25.434Z,20.23
2022-12-01T08:32:54.314Z,17.83
2022-12-01T08:35:23.687Z,16.40
2022-12-01T08:37:53.058Z,15.80
2022-12-01T08:40:20.713Z,18.17
2022-12-01T08:42:48.559Z,15.23
2022-12-01T08:45:16.222Z,15.43
2022-12-01T08:47:43.799Z,15.32
2022-12-01T08:50:11.960Z,16.70
2022-12-01T08:52:40.887Z,17.55
2022-12-01T08:55:09.691Z,23.40
2022-12-01T08:57:37.315Z,31.42
2022-12-01T09:00:05.524Z,17.95
2022-12-01T09:02:33.256Z,18.00
2022-12-01T09:05:00.988Z,15.00
2022-12-01T09:07:28.701Z,19.25
2022-12-01T09:09:57.708Z,18.50
2022-12-01T09:12:25.372Z,17.40
2022-12-01T09:14:53.063Z,16.60
2022-12-01T09:17:20.692Z,16.75
2022-12-01T09:19:48.600Z,15.15
2022-12-01T09:22:16.413Z,15.73
2022-12-01T09:24:44.014Z,17.95
2022-12-01T09:27:13.122Z,15.98
2022-12-01T09:29:40.709Z,15.95
2022-12-01T09:32:08.316Z,16.02
2022-12-01T09:34:35.926Z,18.08
2022-12-01T09:37:03.554Z,15.65
2022-12-01T09:39:31.210Z,16.80
2022-12-01T09:42:08.253Z,16.70
2022-12-01T09:44:42.091Z,15.00
2022-12-01T09:47:19.056Z,15.93
2022-12-01T09:49:56.488Z,56.53
2022-12-01T09:52:26.549Z,41.17
2022-12-01T09:54:56.220Z,17.65
2022-12-01T09:57:31.133Z,14.93
2022-12-01T10:00:02.966Z,17.75
2022-12-01T10:02:43.401Z,17.42
2022-12-01T10:05:21.013Z,14.75
2022-12-01T10:07:53.609Z,15.38
2022-12-01T10:10:28.568Z,17.33
2022-12-01T10:12:56.441Z,14.35
2022-12-01T10:15:36.304Z,15.57
2022-12-01T10:18:21.369Z,17.50
2022-12-01T10:20:55.857Z,14.70
2022-12-01T10:23:39.422Z,15.15
2022-12-01T10:26:14.030Z,15.38
2022-12-01T10:29:11.545Z,17.52
2022-12-01T10:31:49.240Z,27.25
2022-12-01T10:34:19.141Z,26.00
2022-12-01T10:36:47.007Z,22.38
2022-12-01T10:39:19.914Z,17.15
2022-12-01T10:41:49.874Z,16.40
2022-12-01T10:44:19.280Z,15.93
2022-12-01T10:46:53.429Z,20.92
2022-12-01T10:49:22.149Z,22.08
2022-12-01T10:51:55.179Z,18.15
2022-12-01T10:54:25.342Z,15.45
2022-12-01T10:56:57.519Z,16.75
2022-12-01T10:59:29.417Z,15.98
2022-12-01T11:02:00.320Z,16.17
2022-12-01T11:04:37.470Z,17.48
2022-12-01T11:07:05.312Z,14.13
2022-12-01T11:09:33.726Z,13.55
2022-12-01T11:12:03.095Z,15.70
2022-12-01T11:14:42.108Z,19.88
2022-12-01T11:17:29.315Z,22.73
2022-12-01T11:19:57.216Z,19.98
2022-12-01T11:22:27.607Z,24.77
2022-12-01T11:25:04.874Z,18.55
2022-12-01T11:27:36.221Z,16.63
2022-12-01T11:30:07.015Z,15.70
2022-12-01T11:32:39.800Z,16.27
2022-12-01T11:35:17.872Z,13.23
2022-12-01T11:38:13.325Z,13.50
2022-12-01T11:40:46.421Z,14.63
2022-12-01T11:43:24.483Z,13.13
2022-12-01T11:45:53.624Z,16.65
2022-12-01T11:48:27.145Z,12.63
2022-12-01T11:51:07.155Z,14.57
2022-12-01T11:53:36.940Z,15.20
2022-12-01T11:56:17.153Z,15.60
2022-12-01T11:58:46.781Z,14.68
2022-12-01T12:01:22.235Z,12.93
2022-12-01T12:04:00.008Z,14.70
2022-12-01T12:06:40.564Z,14.20
2022-12-01T12:09:31.825Z,13.85
2022-12-01T12:12:12.194Z,15.40
2022-12-01T12:14:53.715Z,14.93
2022-12-01T12:17:47.992Z,16.38
2022-12-01T12:20:28.981Z,13.63
2022-12-01T12:23:11.763Z,14.95
2022-12-01T12:25:53.593Z,15.90
2022-12-01T12:28:39.356Z,15.52
2022-12-01T12:31:17.860Z,15.18
2022-12-01T12:34:15.154Z,15.70
2022-12-01T12:36:52.796Z,14.70
2022-12-01T12:39:41.272Z,14.60
2022-12-01T12:42:20.555Z,15.75
2022-12-01T12:44:52.468Z,15.18
2022-12-01T12:47:32.241Z,14.95
2022-12-01T12:50:09.616Z,17.45
2022-12-01T12:52:41.805Z,15.07
2022-12-01T12:55:17.482Z,15.98
2022-12-01T12:57:49.319Z,13.95
2022-12-01T13:00:19.703Z,14.73
2022-12-01T13:02:51.531Z,12.27
2022-12-01T13:05:24.273Z,17.20
2022-12-01T13:07:59.598Z,14.15
2022-12-01T13:10:34.087Z,15.75
2022-12-01T13:13:12.718Z,13.73
2022-12-01T13:15:42.385Z,14.85
2022-12-01T13:18:26.616Z,16.58
2022-12-01T13:20:58.075Z,15.30
2022-12-01T13:23:27.436Z,15.95
2022-12-01T13:26:00.144Z,13.52
2022-12-01T13:28:30.372Z,13.77
2022-12-01T13:31:00.880Z,12.70
2022-12-01T13:33:29.088Z,14.82
2022-12-01T13:36:29.779Z,15.68
2022-12-01T13:38:57.795Z,16.85
2022-12-01T13:41:29.355Z,13.77
2022-12-01T13:44:04.702Z,15.18
2022-12-01T13:46:50.684Z,13.30
2022-12-01T13:49:34.775Z,15.02
2022-12-01T13:52:29.277Z,13.45
2022-12-01T13:55:26.686Z,14.45
2022-12-01T13:58:24.151Z,13.30
2022-12-01T14:00:52.141Z,12.77
2022-12-01T14:03:42.200Z,12.25
2022-12-01T14:06:22.623Z,13.80
2022-12-01T14:08:51.344Z,14.25
2022-12-01T14:11:22.457Z,13.60
2022-12-01T14:13:56.689Z,11.85
2022-12-01T14:16:25.133Z,12.95
2022-12-01T14:18:56.231Z,15.60
2022-12-01T14:21:43.245Z,12.50
2022-12-01T14:24:24.017Z,14.50
2022-12-01T14:26:53.582Z,12.45
2022-12-01T14:29:34.305Z,15.05
2022-12-01T14:32:25.884Z,15.70
2022-12-01T14:35:06.622Z,14.93
2022-12-01T14:37:43.398Z,17.30
2022-12-01T14:40:17.780Z,15.43
2022-12-01T14:43:06.723Z,16.40
2022-12-01T14:45:41.546Z,14.13
2022-12-01T14:48:14.942Z,19.00
2022-12-01T14:53:23.473Z,16.55
2022-12-01T14:55:56.111Z,14.23
2022-12-01T14:58:29.247Z,14.52
2022-12-01T15:01:03.208Z,15.82
2022-12-01T15:03:36.361Z,13.73
2022-12-01T15:06:04.281Z,14.70
2022-12-01T15:08:42.031Z,14.25
2022-12-01T15:11:22.030Z,16.60
2022-12-01T15:13:51.450Z,16.42
2022-12-01T15:16:21.844Z,14.13
2022-12-01T15:18:50.158Z,15.07
2022-12-01T15:21:20.533Z,16.63
2022-12-01T15:23:56.361Z,18.60
2022-12-01T15:26:27.428Z,13.40
2022-12-01T15:29:16.289Z,18.80
2022-12-01T15:31:48.512Z,15.02
2022-12-01T15:34:19.899Z,15.13
2022-12-01T15:36:49.181Z,16.55
2022-12-01T15:39:19.169Z,15.40
2022-12-01T15:41:53.710Z,16.92
2022-12-01T15:44:26.833Z,15.98
2022-12-01T15:46:56.058Z,17.20
2022-12-01T15:49:29.324Z,18.63
2022-12-01T15:52:06.876Z,16.88
2022-12-01T15:54:35.162Z,18.00
2022-12-01T15:57:03.538Z,18.42
2022-12-01T15:59:36.783Z,20.25
2022-12-01T16:02:23.420Z,19.35
2022-12-01T16:05:01.191Z,22.02
2022-12-01T16:08:04.392Z,22.02
2022-12-01T16:10:39.286Z,18.38
2022-12-01T16:13:40.568Z,20.17
2022-12-01T16:16:39.923Z,17.98
2022-12-01T16:19:30.037Z,17.20
2022-12-01T16:22:02.495Z,17.45
2022-12-01T16:24:32.765Z,12.13
2022-12-01T16:27:04.619Z,17.27
2022-12-01T16:29:36.255Z,15.18
2022-12-01T16:32:20.751Z,16.90
2022-12-01T16:34:50.863Z,15.93
2022-12-01T16:37:18.475Z,15.75
2022-12-01T16:39:46.547Z,17.67
2022-12-01T16:42:15.934Z,15.10
2022-12-01T16:44:44.675Z,17.20
2022-12-01T16:47:17.133Z,15.45
2022-12-01T16:49:44.893Z,15.98
2022-12-01T16:55:01.922Z,16.90
2022-12-01T16:57:29.640Z,19.38
2022-12-01T16:59:57.246Z,18.05
2022-12-01T17:02:24.930Z,16.65
2022-12-01T17:04:52.813Z,16.83
2022-12-01T17:07:21.992Z,15.60
2022-12-01T17:09:49.683Z,18.35
2022-12-01T17:12:17.263Z,18.38
2022-12-01T17:14:44.911Z,16.27
2022-12-01T17:17:12.525Z,17.85
2022-12-01T17:19:40.121Z,17.10
2022-12-01T17:22:07.768Z,18.63
2022-12-01T17:24:36.750Z,18.63
2022-12-01T17:27:04.504Z,18.80
2022-12-01T17:29:32.180Z,19.70
2022-12-01T17:31:59.855Z,21.48
2022-12-01T17:34:27.569Z,18.90
2022-12-01T17:36:55.268Z,19.75
2022-12-01T17:39:22.958Z,20.38
2022-12-01T17:41:51.899Z,23.25
2022-12-01T17:44:19.520Z,19.02
2022-12-01T17:46:47.214Z,19.10
2022-12-01T17:49:15.044Z,19.50
2022-12-01T17:51:43.792Z,18.88
2022-12-01T17:54:11.522Z,22.35
2022-12-01T17:56:39.139Z,18.38
2022-12-01T17:59:08.146Z,19.77
2022-12-01T18:01:35.995Z,18.30
2022-12-01T18:04:03.772Z,20.50
2022-12-01T18:06:31.516Z,20.10
2022-12-01T18:09:00.477Z,20.83
2022-12-01T18:11:28.670Z,20.95
2022-12-01T18:13:56.417Z,20.90
2022-12-01T18:16:28.041Z,20.88
2022-12-01T18:18:57.748Z,22.27
2022-12-01T18:21:26.466Z,18.15
2022-12-01T18:23:55.627Z,18.65
2022-12-01T18:26:24.325Z,17.77
2022-12-01T18:28:54.786Z,18.52
2022-12-01T18:31:22.513Z,18.65
2022-12-01T18:33:51.668Z,16.75
2022-12-01T18:36:21.428Z,18.58
2022-12-01T18:38:49.981Z,17.50
2022-12-01T18:41:18.554Z,15.57
2022-12-01T18:43:46.534Z,18.27
2022-12-01T18:46:15.923Z,15.38
2022-12-01T18:48:45.961Z,14.82
2022-12-01T18:51:15.721Z,16.95
2022-12-01T18:53:45.310Z,16.83
2022-12-01T18:56:15.240Z,18.52
2022-12-01T18:58:43.898Z,22.35
2022-12-01T19:01:19.725Z,18.67
2022-12-01T19:03:48.009Z,18.92
2022-12-01T19:06:17.895Z,17.60
2022-12-01T19:08:47.399Z,18.65
2022-12-01T19:11:15.600Z,20.40
2022-12-01T19:13:43.259Z,20.02
2022-12-01T19:16:12.941Z,21.95
2022-12-01T19:18:41.372Z,18.95
2022-12-01T19:21:11.335Z,21.77
2022-12-01T19:23:40.321Z,19.50
2022-12-01T19:26:10.913Z,20.20
2022-12-01T19:28:40.215Z,18.60
2022-12-01T19:31:09.454Z,18.08
2022-12-01T19:33:37.122Z,19.15
2022-12-01T19:36:06.443Z,15.45
2022-12-01T19:38:34.122Z,19.80
2022-12-01T19:41:03.560Z,17.88
2022-12-01T19:43:31.242Z,19.98
2022-12-01T19:46:04.482Z,19.45
2022-12-01T19:48:32.147Z,22.65
2022-12-01T19:50:59.797Z,19.45
2022-12-01T19:53:31.970Z,18.77
2022-12-01T19:56:03.786Z,19.38
2022-12-01T19:58:34.337Z,21.27
2022-12-01T20:01:06.270Z,17.30
2022-12-01T20:03:33.970Z,17.92
2022-12-01T20:06:03.040Z,18.42
2022-12-01T20:08:35.060Z,17.80
2022-12-01T20:11:05.730Z,16.80
2022-12-01T20:13:34.279Z,21.73
2022-12-01T20:16:03.645Z,20.92
2022-12-01T20:18:31.371Z,19.90
2022-12-01T20:21:07.630Z,21.77
2022-12-01T20:23:36.702Z,21.23
2022-12-01T20:26:07.910Z,21.50
2022-12-01T20:28:37.209Z,18.02
2022-12-01T20:31:10.874Z,21.50
2022-12-01T20:36:07.135Z,20.63
2022-12-01T20:38:35.461Z,20.20
2022-12-01T20:41:05.200Z,19.45
2022-12-01T20:43:33.465Z,23.08
2022-12-01T20:46:01.695Z,20.95
2022-12-01T20:48:29.712Z,19.80
2022-12-01T20:50:57.462Z,20.55
2022-12-01T20:53:25.083Z,20.50
2022-12-01T20:55:52.724Z,21.85
2022-12-01T20:58:21.753Z,21.85
2022-12-01T21:00:49.511Z,20.55
2022-12-01T21:03:17.118Z,20.92
2022-12-01T21:05:45.217Z,21.35
2022-12-01T21:08:14.357Z,23.98
2022-12-01T21:10:44.785Z,23.70
2022-12-01T21:13:37.021Z,22.52
2022-12-01T21:16:13.735Z,24.40
2022-12-01T21:18:48.673Z,22.92
2022-12-01T21:21:27.517Z,21.10
2022-12-01T21:24:09.596Z,25.13
2022-12-01T21:26:37.980Z,22.58
2022-12-01T21:29:17.742Z,24.52
2022-12-01T21:31:47.417Z,25.15
2022-12-01T21:34:20.030Z,27.23
2022-12-01T21:36:49.828Z,23.63
2022-12-01T21:39:20.490Z,24.98
2022-12-01T21:41:50.117Z,24.10
2022-12-01T21:44:19.978Z,23.30
2022-12-01T21:46:53.569Z,24.00
2022-12-01T21:49:23.298Z,27.35
2022-12-01T21:51:53.559Z,29.85
2022-12-01T21:54:22.563Z,25.88
2022-12-01T21:56:53.029Z,25.70
2022-12-01T21:59:22.499Z,24.58
2022-12-01T22:09:19.839Z,27.48
2022-12-01T22:11:52.741Z,26.83
2022-12-01T22:14:23.008Z,26.48
2022-12-01T22:16:56.289Z,31.85
2022-12-01T22:19:31.590Z,26.38
2022-12-01T22:22:04.397Z,26.75
2022-12-01T22:24:40.280Z,27.95
2022-12-01T22:27:21.653Z,26.05
2022-12-01T22:29:51.943Z,28.88
2022-12-01T22:32:35.749Z,27.48
2022-12-01T22:35:20.466Z,29.40
2022-12-01T22:37:49.926Z,27.58
2022-12-01T22:40:39.837Z,32.25
2022-12-01T22:43:27.205Z,29.98
2022-12-01T22:46:21.331Z,25.95
2022-12-01T22:48:51.771Z,28.98
2022-12-01T22:51:26.089Z,27.75
2022-12-01T22:53:59.058Z,27.75
2022-12-01T22:56:37.517Z,29.02
2022-12-01T22:59:16.989Z,30.02
2022-12-01T23:01:50.366Z,32.03
2022-12-01T23:07:04.577Z,28.48
2022-12-01T23:09:35.831Z,31.95
2022-12-01T23:12:21.097Z,28.98
2022-12-01T23:14:52.363Z,29.70
2022-12-01T23:17:22.933Z,31.23
2022-12-01T23:19:54.085Z,31.88
2022-12-01T23:22:21.766Z,31.80
2022-12-01T23:24:49.564Z,31.25
2022-12-01T23:27:18.809Z,35.22
2022-12-01T23:29:46.625Z,35.13
2022-12-01T23:32:14.198Z,31.20
2022-12-01T23:34:41.840Z,32.58
2022-12-01T23:37:25.200Z,33.45
2022-12-01T23:39:52.835Z,32.78
2022-12-01T23:42:20.421Z,34.15
2022-12-01T23:44:49.505Z,38.15
2022-12-01T23:47:20.830Z,33.28
2022-12-01T23:49:49.472Z,35.38
2022-12-01T23:52:21.900Z,38.22
2022-12-01T23:54:50.056Z,25.75
2022-12-01T23:57:21.692Z,37.65
2022-12-01T23:59:50.277Z,31.95
